sensor_id;sensor_type;location;lat;lon;timestamp;pressure;altitude;pressure_sealevel;temperature;humidity
72903;BME280;61047;43.282;28.014;2024-03-17T00:01:32;99420.78;;;7.79;58.76
72903;BME280;61047;43.282;28.014;2024-03-17T00:03:58;99414.44;;;7.71;59.27
72903;BME280;61047;43.282;28.014;2024-03-17T00:06:24;99419.84;;;7.69;59.02
72903;BME280;61047;43.282;28.014;2024-03-17T00:08:50;99422.59;;;7.67;58.93
72903;BME280;61047;43.282;28.014;2024-03-17T00:11:16;99417.69;;;7.63;58.93
72903;BME280;61047;43.282;28.014;2024-03-17T00:13:41;99418.19;;;7.57;58.72
72903;BME280;61047;43.282;28.014;2024-03-17T00:16:07;99417.94;;;7.60;58.50
72903;BME280;61047;43.282;28.014;2024-03-17T00:18:32;99422.97;;;7.63;58.16
72903;BME280;61047;43.282;28.014;2024-03-17T00:20:58;99417.69;;;7.63;58.36
72903;BME280;61047;43.282;28.014;2024-03-17T00:23:25;99415.31;;;7.60;58.52
72903;BME280;61047;43.282;28.014;2024-03-17T00:25:50;99419.84;;;7.58;59.08
72903;BME280;61047;43.282;28.014;2024-03-17T00:28:16;99415.56;;;7.57;58.36
72903;BME280;61047;43.282;28.014;2024-03-17T00:30:42;99411.47;;;7.53;59.35
72903;BME280;61047;43.282;28.014;2024-03-17T00:33:08;99417.94;;;7.37;60.14
72903;BME280;61047;43.282;28.014;2024-03-17T00:35:33;99412.06;;;7.45;60.38
72903;BME280;61047;43.282;28.014;2024-03-17T00:37:59;99419.41;;;7.41;59.95
72903;BME280;61047;43.282;28.014;2024-03-17T00:40:25;99422.38;;;7.37;59.32
72903;BME280;61047;43.282;28.014;2024-03-17T00:42:51;99420.09;;;7.32;59.69
72903;BME280;61047;43.282;28.014;2024-03-17T00:45:17;99419.03;;;7.35;59.47
72903;BME280;61047;43.282;28.014;2024-03-17T00:47:43;99424.44;;;7.33;59.76
72903;BME280;61047;43.282;28.014;2024-03-17T00:50:09;99420.84;;;7.34;59.02
72903;BME280;61047;43.282;28.014;2024-03-17T00:52:36;99415.69;;;7.33;59.94
72903;BME280;61047;43.282;28.014;2024-03-17T00:55:02;99420.09;;;7.32;60.42
72903;BME280;61047;43.282;28.014;2024-03-17T00:57:28;99415.09;;;7.40;59.15
72903;BME280;61047;43.282;28.014;2024-03-17T00:59:54;99414.72;;;7.45;59.26
72903;BME280;61047;43.282;28.014;2024-03-17T01:02:20;99416.03;;;7.51;58.72
72903;BME280;61047;43.282;28.014;2024-03-17T01:04:46;99410.38;;;7.55;58.90
72903;BME280;61047;43.282;28.014;2024-03-17T01:07:12;99411.00;;;7.59;58.76
72903;BME280;61047;43.282;28.014;2024-03-17T01:09:38;99412.56;;;7.61;58.25
72903;BME280;61047;43.282;28.014;2024-03-17T01:12:04;99412.56;;;7.61;58.35
72903;BME280;61047;43.282;28.014;2024-03-17T01:14:31;99405.47;;;7.62;59.05
72903;BME280;61047;43.282;28.014;2024-03-17T01:16:57;99412.09;;;7.56;59.48
72903;BME280;61047;43.282;28.014;2024-03-17T01:19:23;99408.44;;;7.68;59.15
72903;BME280;61047;43.282;28.014;2024-03-17T01:21:49;99405.44;;;7.73;58.60
72903;BME280;61047;43.282;28.014;2024-03-17T01:24:14;99399.94;;;7.76;58.86
72903;BME280;61047;43.282;28.014;2024-03-17T01:26:40;99393.72;;;7.66;58.58
72903;BME280;61047;43.282;28.014;2024-03-17T01:29:06;99398.75;;;7.58;59.37
72903;BME280;61047;43.282;28.014;2024-03-17T01:31:31;99404.53;;;7.52;59.84
72903;BME280;61047;43.282;28.014;2024-03-17T01:33:57;99403.09;;;7.48;59.19
72903;BME280;61047;43.282;28.014;2024-03-17T01:36:22;99391.81;;;7.45;59.55
72903;BME280;61047;43.282;28.014;2024-03-17T01:38:49;99398.91;;;7.45;59.89
72903;BME280;61047;43.282;28.014;2024-03-17T01:41:15;99400.72;;;7.33;60.25
72903;BME280;61047;43.282;28.014;2024-03-17T01:43:40;99395.69;;;7.30;58.55
72903;BME280;61047;43.282;28.014;2024-03-17T01:46:08;99395.91;;;7.27;58.52
72903;BME280;61047;43.282;28.014;2024-03-17T01:48:38;99391.72;;;7.24;58.46
72903;BME280;61047;43.282;28.014;2024-03-17T01:51:04;99391.25;;;7.19;59.65
72903;BME280;61047;43.282;28.014;2024-03-17T01:53:29;99390.66;;;7.16;59.61
72903;BME280;61047;43.282;28.014;2024-03-17T01:55:56;99386.59;;;7.12;59.19
72903;BME280;61047;43.282;28.014;2024-03-17T01:58:24;99386.00;;;7.08;59.57
72903;BME280;61047;43.282;28.014;2024-03-17T02:00:50;99385.16;;;7.08;59.30
72903;BME280;61047;43.282;28.014;2024-03-17T02:03:17;99378.19;;;6.95;60.86
72903;BME280;61047;43.282;28.014;2024-03-17T02:05:43;99385.41;;;7.05;60.32
72903;BME280;61047;43.282;28.014;2024-03-17T02:08:10;99386.00;;;6.97;60.61
72903;BME280;61047;43.282;28.014;2024-03-17T02:10:36;99384.69;;;6.91;60.85
72903;BME280;61047;43.282;28.014;2024-03-17T02:13:02;99378.78;;;6.88;60.37
72903;BME280;61047;43.282;28.014;2024-03-17T02:15:29;99381.56;;;6.86;59.95
72903;BME280;61047;43.282;28.014;2024-03-17T02:17:54;99381.81;;;6.83;60.03
72903;BME280;61047;43.282;28.014;2024-03-17T02:20:20;99382.63;;;6.84;60.55
72903;BME280;61047;43.282;28.014;2024-03-17T02:23:06;99384.88;;;6.77;59.93
72903;BME280;61047;43.282;28.014;2024-03-17T02:25:32;99382.13;;;6.67;61.48
72903;BME280;61047;43.282;28.014;2024-03-17T02:27:58;99381.03;;;6.70;59.98
72903;BME280;61047;43.282;28.014;2024-03-17T02:30:23;99379.97;;;6.72;59.94
72903;BME280;61047;43.282;28.014;2024-03-17T02:32:52;99375.78;;;6.70;61.22
72903;BME280;61047;43.282;28.014;2024-03-17T02:35:18;99371.59;;;6.67;60.87
72903;BME280;61047;43.282;28.014;2024-03-17T02:37:43;99361.91;;;6.68;60.15
72903;BME280;61047;43.282;28.014;2024-03-17T02:40:09;99371.59;;;6.67;59.81
72903;BME280;61047;43.282;28.014;2024-03-17T02:42:35;99368.84;;;6.69;59.94
72903;BME280;61047;43.282;28.014;2024-03-17T02:45:04;99367.19;;;6.68;60.25
72903;BME280;61047;43.282;28.014;2024-03-17T02:47:29;99364.56;;;6.68;60.92
72903;BME280;61047;43.282;28.014;2024-03-17T02:49:55;99361.91;;;6.68;60.68
72903;BME280;61047;43.282;28.014;2024-03-17T02:52:21;99363.94;;;6.64;60.92
72903;BME280;61047;43.282;28.014;2024-03-17T02:54:46;99359.72;;;6.50;61.29
72903;BME280;61047;43.282;28.014;2024-03-17T02:57:12;99361.97;;;6.44;60.75
72903;BME280;61047;43.282;28.014;2024-03-17T02:59:38;99353.25;;;6.43;61.05
72903;BME280;61047;43.282;28.014;2024-03-17T03:02:04;99350.84;;;6.40;60.41
72903;BME280;61047;43.282;28.014;2024-03-17T03:04:30;99363.91;;;6.42;60.60
72903;BME280;61047;43.282;28.014;2024-03-17T03:06:55;99361.47;;;6.39;61.27
72903;BME280;61047;43.282;28.014;2024-03-17T03:09:21;99360.41;;;6.41;60.21
72903;BME280;61047;43.282;28.014;2024-03-17T03:11:56;99364.25;;;6.37;60.62
72903;BME280;61047;43.282;28.014;2024-03-17T03:14:21;99357.78;;;6.41;60.01
72903;BME280;61047;43.282;28.014;2024-03-17T03:16:47;99368.94;;;6.45;59.95
72903;BME280;61047;43.282;28.014;2024-03-17T03:19:14;99363.53;;;6.46;60.45
72903;BME280;61047;43.282;28.014;2024-03-17T03:21:40;99361.88;;;6.45;59.75
72903;BME280;61047;43.282;28.014;2024-03-17T03:24:06;99363.53;;;6.46;59.91
72903;BME280;61047;43.282;28.014;2024-03-17T03:26:31;99366.16;;;6.46;60.42
72903;BME280;61047;43.282;28.014;2024-03-17T03:28:57;99369.75;;;6.45;60.16
72903;BME280;61047;43.282;28.014;2024-03-17T03:31:23;99369.28;;;6.40;61.39
72903;BME280;61047;43.282;28.014;2024-03-17T03:33:48;99379.53;;;6.32;61.65
72903;BME280;61047;43.282;28.014;2024-03-17T03:36:14;99372.72;;;6.29;61.04
72903;BME280;61047;43.282;28.014;2024-03-17T03:38:40;99377.97;;;6.29;61.02
72903;BME280;61047;43.282;28.014;2024-03-17T03:41:09;99374.63;;;6.27;61.52
72903;BME280;61047;43.282;28.014;2024-03-17T03:43:35;99371.25;;;6.25;61.64
72903;BME280;61047;43.282;28.014;2024-03-17T03:46:01;99381.66;;;6.27;61.26
72903;BME280;61047;43.282;28.014;2024-03-17T03:48:27;99383.69;;;6.23;61.46
72903;BME280;61047;43.282;28.014;2024-03-17T03:50:52;99386.66;;;6.19;61.86
72903;BME280;61047;43.282;28.014;2024-03-17T03:53:19;99386.66;;;6.19;61.28
72903;BME280;61047;43.282;28.014;2024-03-17T03:55:46;99387.97;;;6.13;62.13
72903;BME280;61047;43.282;28.014;2024-03-17T03:58:12;99391.28;;;6.15;60.67
72903;BME280;61047;43.282;28.014;2024-03-17T04:00:38;99395.06;;;6.24;60.55
72903;BME280;61047;43.282;28.014;2024-03-17T04:03:04;99386.69;;;6.30;60.16
72903;BME280;61047;43.282;28.014;2024-03-17T04:05:30;99382.91;;;6.34;59.88
72903;BME280;61047;43.282;28.014;2024-03-17T04:07:56;99390.56;;;6.37;59.64
72903;BME280;61047;43.282;28.014;2024-03-17T04:10:22;99386.03;;;6.39;59.89
72903;BME280;61047;43.282;28.014;2024-03-17T04:12:49;99387.44;;;6.43;59.81
72903;BME280;61047;43.282;28.014;2024-03-17T04:15:15;99394.28;;;6.46;59.33
72903;BME280;61047;43.282;28.014;2024-03-17T04:17:40;99386.28;;;6.47;60.53
72903;BME280;61047;43.282;28.014;2024-03-17T04:20:07;99389.91;;;6.57;60.38
72903;BME280;61047;43.282;28.014;2024-03-17T04:22:33;99392.88;;;6.64;60.14
72903;BME280;61047;43.282;28.014;2024-03-17T04:24:59;99394.19;;;6.58;59.84
72903;BME280;61047;43.282;28.014;2024-03-17T04:27:27;99396.81;;;6.58;60.20
72903;BME280;61047;43.282;28.014;2024-03-17T04:29:54;99397.66;;;6.59;60.77
72903;BME280;61047;43.282;28.014;2024-03-17T04:32:20;99400.28;;;6.59;60.21
72903;BME280;61047;43.282;28.014;2024-03-17T04:34:45;99405.69;;;6.69;59.85
72903;BME280;61047;43.282;28.014;2024-03-17T04:37:12;99394.94;;;6.72;59.53
72903;BME280;61047;43.282;28.014;2024-03-17T04:39:41;99407.41;;;6.81;59.91
72903;BME280;61047;43.282;28.014;2024-03-17T04:42:08;99406.44;;;6.82;59.68
72903;BME280;61047;43.282;28.014;2024-03-17T04:44:34;99410.16;;;6.91;58.72
72903;BME280;61047;43.282;28.014;2024-03-17T04:47:00;99410.44;;;6.99;59.22
72903;BME280;61047;43.282;28.014;2024-03-17T04:49:26;99416.28;;;7.03;58.67
72903;BME280;61047;43.282;28.014;2024-03-17T04:51:51;99418.44;;;7.09;58.49
72903;BME280;61047;43.282;28.014;2024-03-17T04:54:17;99417.59;;;7.19;58.22
72903;BME280;61047;43.282;28.014;2024-03-17T04:56:43;99421.31;;;7.28;58.58
72903;BME280;61047;43.282;28.014;2024-03-17T04:59:09;99416.53;;;7.33;57.85
72903;BME280;61047;43.282;28.014;2024-03-17T05:01:35;99417.50;;;7.43;58.59
72903;BME280;61047;43.282;28.014;2024-03-17T05:04:02;99427.75;;;7.58;58.28
72903;BME280;61047;43.282;28.014;2024-03-17T05:06:28;99419.84;;;7.69;58.43
72903;BME280;61047;43.282;28.014;2024-03-17T05:08:54;99420.06;;;7.77;58.27
72903;BME280;61047;43.282;28.014;2024-03-17T05:11:19;99426.28;;;7.87;58.23
72903;BME280;61047;43.282;28.014;2024-03-17T05:13:45;99421.94;;;7.98;57.85
72903;BME280;61047;43.282;28.014;2024-03-17T05:16:11;99424.78;;;8.06;58.17
72903;BME280;61047;43.282;28.014;2024-03-17T05:18:36;99425.94;;;8.13;57.86
72903;BME280;61047;43.282;28.014;2024-03-17T05:21:05;99423.56;;;8.21;58.00
72903;BME280;61047;43.282;28.014;2024-03-17T05:23:31;99423.13;;;8.37;57.45
72903;BME280;61047;43.282;28.014;2024-03-17T05:25:58;99416.44;;;8.54;57.18
72903;BME280;61047;43.282;28.014;2024-03-17T05:28:24;99414.91;;;8.72;56.53
72903;BME280;61047;43.282;28.014;2024-03-17T05:30:50;99412.25;;;8.93;55.84
72903;BME280;61047;43.282;28.014;2024-03-17T05:33:18;99415.34;;;9.29;55.25
72903;BME280;61047;43.282;28.014;2024-03-17T05:35:54;99411.78;;;9.40;54.57
72903;BME280;61047;43.282;28.014;2024-03-17T05:38:25;99415.13;;;9.42;54.48
72903;BME280;61047;43.282;28.014;2024-03-17T05:40:54;99415.06;;;9.63;54.05
72903;BME280;61047;43.282;28.014;2024-03-17T05:43:23;99419.81;;;9.79;53.88
72903;BME280;61047;43.282;28.014;2024-03-17T05:45:59;99413.16;;;9.94;53.73
72903;BME280;61047;43.282;28.014;2024-03-17T05:48:25;99422.13;;;10.22;53.29
72903;BME280;61047;43.282;28.014;2024-03-17T05:50:51;99418.38;;;10.35;53.13
72903;BME280;61047;43.282;28.014;2024-03-17T05:53:17;99425.19;;;10.57;52.76
72903;BME280;61047;43.282;28.014;2024-03-17T05:55:43;99427.25;;;10.82;52.16
72903;BME280;61047;43.282;28.014;2024-03-17T05:58:10;99432.22;;;11.05;51.73
72903;BME280;61047;43.282;28.014;2024-03-17T06:00:36;99436.97;;;11.11;51.72
72903;BME280;61047;43.282;28.014;2024-03-17T06:03:02;99436.97;;;11.38;51.25
72903;BME280;61047;43.282;28.014;2024-03-17T06:05:32;99438.28;;;11.62;50.72
72903;BME280;61047;43.282;28.014;2024-03-17T06:07:58;99442.66;;;11.81;50.34
72903;BME280;61047;43.282;28.014;2024-03-17T06:10:24;99436.38;;;11.82;50.26
72903;BME280;61047;43.282;28.014;2024-03-17T06:12:50;99444.88;;;11.58;51.03
72903;BME280;61047;43.282;28.014;2024-03-17T06:15:16;99444.31;;;11.54;51.36
72903;BME280;61047;43.282;28.014;2024-03-17T06:17:42;99444.97;;;11.66;51.24
72903;BME280;61047;43.282;28.014;2024-03-17T06:20:08;99443.34;;;12.11;50.50
72903;BME280;61047;43.282;28.014;2024-03-17T06:22:38;99442.28;;;12.39;49.71
72903;BME280;61047;43.282;28.014;2024-03-17T06:25:05;99445.91;;;12.74;49.39
72903;BME280;61047;43.282;28.014;2024-03-17T06:27:30;99444.09;;;13.01;48.64
72903;BME280;61047;43.282;28.014;2024-03-17T06:29:56;99442.53;;;13.16;48.13
72903;BME280;61047;43.282;28.014;2024-03-17T06:32:22;99445.63;;;13.29;48.38
72903;BME280;61047;43.282;28.014;2024-03-17T06:34:48;99446.09;;;13.51;48.01
72903;BME280;61047;43.282;28.014;2024-03-17T06:37:13;99450.69;;;13.83;47.92
72903;BME280;61047;43.282;28.014;2024-03-17T06:39:39;99448.22;;;14.73;45.97
72903;BME280;61047;43.282;28.014;2024-03-17T06:42:05;99445.31;;;15.24;44.89
72903;BME280;61047;43.282;28.014;2024-03-17T06:44:30;99439.66;;;15.66;44.08
72903;BME280;61047;43.282;28.014;2024-03-17T06:46:58;99446.59;;;16.23;43.17
72903;BME280;61047;43.282;28.014;2024-03-17T06:49:24;99453.22;;;16.04;43.59
72903;BME280;61047;43.282;28.014;2024-03-17T06:51:49;99447.38;;;16.01;44.13
72903;BME280;61047;43.282;28.014;2024-03-17T06:54:15;99452.84;;;16.07;44.09
72903;BME280;61047;43.282;28.014;2024-03-17T06:56:42;99447.47;;;16.38;42.85
72903;BME280;61047;43.282;28.014;2024-03-17T06:59:07;99445.88;;;16.29;43.41
72903;BME280;61047;43.282;28.014;2024-03-17T07:01:33;99450.03;;;16.01;43.33
72903;BME280;61047;43.282;28.014;2024-03-17T07:03:59;99449.66;;;15.81;44.43
72903;BME280;61047;43.282;28.014;2024-03-17T07:06:25;99451.41;;;15.57;44.62
72903;BME280;61047;43.282;28.014;2024-03-17T07:08:52;99452.53;;;15.63;45.08
72903;BME280;61047;43.282;28.014;2024-03-17T07:11:18;99456.00;;;15.80;44.77
72903;BME280;61047;43.282;28.014;2024-03-17T07:13:43;99460.38;;;15.64;44.75
72903;BME280;61047;43.282;28.014;2024-03-17T07:16:09;99457.06;;;15.70;45.39
72903;BME280;61047;43.282;28.014;2024-03-17T07:18:35;99454.59;;;15.92;45.36
72903;BME280;61047;43.282;28.014;2024-03-17T07:21:04;99461.13;;;15.89;45.51
72903;BME280;61047;43.282;28.014;2024-03-17T07:23:30;99459.03;;;16.08;45.12
72903;BME280;61047;43.282;28.014;2024-03-17T07:25:57;99456.03;;;16.34;44.78
72903;BME280;61047;43.282;28.014;2024-03-17T07:28:23;99464.25;;;16.32;44.91
72903;BME280;61047;43.282;28.014;2024-03-17T07:30:53;99454.47;;;17.09;43.50
72903;BME280;61047;43.282;28.014;2024-03-17T07:33:19;99456.09;;;17.10;43.53
72903;BME280;61047;43.282;28.014;2024-03-17T07:35:51;99452.53;;;17.17;43.59
72903;BME280;61047;43.282;28.014;2024-03-17T07:38:17;99451.09;;;16.92;43.85
72903;BME280;61047;43.282;28.014;2024-03-17T07:40:44;99454.81;;;17.20;43.47
72903;BME280;61047;43.282;28.014;2024-03-17T07:43:09;99446.84;;;17.65;43.01
72903;BME280;61047;43.282;28.014;2024-03-17T07:45:35;99446.53;;;18.04;41.95
72903;BME280;61047;43.282;28.014;2024-03-17T07:48:01;99442.28;;;17.80;42.09
72903;BME280;61047;43.282;28.014;2024-03-17T07:50:26;99443.28;;;18.30;41.73
72903;BME280;61047;43.282;28.014;2024-03-17T07:52:52;99444.75;;;20.08;38.88
72903;BME280;61047;43.282;28.014;2024-03-17T07:55:18;99437.22;;;19.49;39.93
72903;BME280;61047;43.282;28.014;2024-03-17T07:57:44;99437.88;;;19.99;38.94
72903;BME280;61047;43.282;28.014;2024-03-17T08:00:10;99429.50;;;19.39;39.86
72903;BME280;61047;43.282;28.014;2024-03-17T08:02:50;99435.41;;;19.98;39.00
72903;BME280;61047;43.282;28.014;2024-03-17T08:05:16;99426.38;;;20.19;39.04
72903;BME280;61047;43.282;28.014;2024-03-17T08:07:41;99419.19;;;21.19;37.68
72903;BME280;61047;43.282;28.014;2024-03-17T08:10:07;99418.03;;;21.73;36.77
72903;BME280;61047;43.282;28.014;2024-03-17T08:12:33;99416.63;;;22.02;35.96
72903;BME280;61047;43.282;28.014;2024-03-17T08:14:59;99420.06;;;22.55;35.15
72903;BME280;61047;43.282;28.014;2024-03-17T08:17:25;99416.31;;;23.12;35.54
72903;BME280;61047;43.282;28.014;2024-03-17T08:19:51;99420.47;;;23.89;34.01
72903;BME280;61047;43.282;28.014;2024-03-17T08:22:17;99416.25;;;24.35;32.72
72903;BME280;61047;43.282;28.014;2024-03-17T08:24:42;99416.31;;;24.16;32.49
72903;BME280;61047;43.282;28.014;2024-03-17T08:27:08;99404.47;;;24.71;32.01
72903;BME280;61047;43.282;28.014;2024-03-17T08:29:34;99406.88;;;25.03;30.63
72903;BME280;61047;43.282;28.014;2024-03-17T08:32:00;99402.91;;;25.69;30.03
72903;BME280;61047;43.282;28.014;2024-03-17T08:34:25;99396.34;;;25.94;29.18
72903;BME280;61047;43.282;28.014;2024-03-17T08:36:51;99398.91;;;26.12;28.99
72903;BME280;61047;43.282;28.014;2024-03-17T08:39:17;99403.91;;;26.66;28.80
72903;BME280;61047;43.282;28.014;2024-03-17T08:41:43;99397.28;;;26.45;28.86
72903;BME280;61047;43.282;28.014;2024-03-17T08:44:09;99390.56;;;26.02;28.96
72903;BME280;61047;43.282;28.014;2024-03-17T08:46:35;99398.28;;;25.82;29.56
72903;BME280;61047;43.282;28.014;2024-03-17T08:49:03;99389.75;;;25.49;30.19
72903;BME280;61047;43.282;28.014;2024-03-17T08:51:29;99387.28;;;25.48;30.76
72903;BME280;61047;43.282;28.014;2024-03-17T08:53:55;99389.41;;;25.58;29.78
72903;BME280;61047;43.282;28.014;2024-03-17T08:56:23;99383.06;;;25.40;30.82
72903;BME280;61047;43.282;28.014;2024-03-17T08:58:48;99380.94;;;25.30;30.67
72903;BME280;61047;43.282;28.014;2024-03-17T09:01:14;99393.59;;;25.65;30.95
72903;BME280;61047;43.282;28.014;2024-03-17T09:03:41;99389.94;;;25.71;30.01
72903;BME280;61047;43.282;28.014;2024-03-17T09:06:17;99386.47;;;25.88;29.76
72903;BME280;61047;43.282;28.014;2024-03-17T09:08:44;99387.50;;;25.58;30.17
72903;BME280;61047;43.282;28.014;2024-03-17T09:11:13;99378.53;;;25.98;29.50
72903;BME280;61047;43.282;28.014;2024-03-17T09:13:39;99376.47;;;26.34;29.20
72903;BME280;61047;43.282;28.014;2024-03-17T09:16:04;99370.47;;;26.99;28.16
72903;BME280;61047;43.282;28.014;2024-03-17T09:18:31;99370.78;;;27.03;28.03
72903;BME280;61047;43.282;28.014;2024-03-17T09:20:57;99362.34;;;27.65;27.61
72903;BME280;61047;43.282;28.014;2024-03-17T09:23:23;99373.69;;;28.01;26.90
72903;BME280;61047;43.282;28.014;2024-03-17T09:26:00;99367.94;;;28.94;25.85
72903;BME280;61047;43.282;28.014;2024-03-17T09:28:27;99368.84;;;29.05;25.76
72903;BME280;61047;43.282;28.014;2024-03-17T09:30:53;99365.88;;;29.12;25.57
72903;BME280;61047;43.282;28.014;2024-03-17T09:33:20;99355.69;;;29.50;24.97
72903;BME280;61047;43.282;28.014;2024-03-17T09:36:19;99353.63;;;29.72;24.52
72903;BME280;61047;43.282;28.014;2024-03-17T09:38:39;99349.66;;;30.36;23.55
72903;BME280;61047;43.282;28.014;2024-03-17T09:41:08;99351.25;;;30.22;23.50
72903;BME280;61047;43.282;28.014;2024-03-17T09:43:42;99352.06;;;30.22;23.40
72903;BME280;61047;43.282;28.014;2024-03-17T09:46:09;99354.56;;;30.49;23.46
72903;BME280;61047;43.282;28.014;2024-03-17T09:48:36;99356.75;;;30.58;22.92
72903;BME280;61047;43.282;28.014;2024-03-17T09:51:02;99338.97;;;30.91;23.29
72903;BME280;61047;43.282;28.014;2024-03-17T09:53:29;99351.38;;;31.48;22.62
72903;BME280;61047;43.282;28.014;2024-03-17T09:55:57;99335.34;;;31.16;22.56
72903;BME280;61047;43.282;28.014;2024-03-17T09:58:23;99334.19;;;31.27;22.55
72903;BME280;61047;43.282;28.014;2024-03-17T10:00:49;99330.84;;;31.51;22.31
72903;BME280;61047;43.282;28.014;2024-03-17T10:06:00;99330.66;;;31.87;21.32
72903;BME280;61047;43.282;28.014;2024-03-17T10:08:25;99331.06;;;32.09;21.60
72903;BME280;61047;43.282;28.014;2024-03-17T10:10:54;99334.44;;;32.30;21.57
72903;BME280;61047;43.282;28.014;2024-03-17T10:13:24;99332.66;;;32.15;21.13
72903;BME280;61047;43.282;28.014;2024-03-17T10:15:50;99330.91;;;32.30;21.39
72903;BME280;61047;43.282;28.014;2024-03-17T10:18:22;99328.09;;;31.51;21.39
72903;BME280;61047;43.282;28.014;2024-03-17T10:20:50;99325.06;;;32.07;21.17
72903;BME280;61047;43.282;28.014;2024-03-17T10:23:24;99326.47;;;31.99;21.23
72903;BME280;61047;43.282;28.014;2024-03-17T10:25:50;99322.69;;;31.85;21.26
72903;BME280;61047;43.282;28.014;2024-03-17T10:28:17;99326.09;;;32.51;20.66
72903;BME280;61047;43.282;28.014;2024-03-17T10:30:57;99320.03;;;32.54;20.41
72903;BME280;61047;43.282;28.014;2024-03-17T10:33:23;99326.25;;;32.64;20.50
72903;BME280;61047;43.282;28.014;2024-03-17T10:35:59;99323.47;;;32.30;20.76
72903;BME280;61047;43.282;28.014;2024-03-17T10:38:26;99318.81;;;32.36;21.09
72903;BME280;61047;43.282;28.014;2024-03-17T10:40:52;99315.59;;;32.23;21.08
72903;BME280;61047;43.282;28.014;2024-03-17T10:43:18;99313.09;;;31.88;22.12
72903;BME280;61047;43.282;28.014;2024-03-17T10:45:51;99323.63;;;31.70;22.03
72903;BME280;61047;43.282;28.014;2024-03-17T10:48:17;99319.75;;;31.76;22.45
72903;BME280;61047;43.282;28.014;2024-03-17T10:50:47;99314.41;;;31.51;22.22
72903;BME280;61047;43.282;28.014;2024-03-17T10:53:15;99315.75;;;31.58;21.74
72903;BME280;61047;43.282;28.014;2024-03-17T10:55:46;99307.66;;;31.28;22.08
72903;BME280;61047;43.282;28.014;2024-03-17T11:00:56;99309.69;;;30.76;22.91
72903;BME280;61047;43.282;28.014;2024-03-17T11:03:24;99307.53;;;30.83;22.35
72903;BME280;61047;43.282;28.014;2024-03-17T11:05:51;99303.63;;;31.00;22.63
72903;BME280;61047;43.282;28.014;2024-03-17T11:08:17;99297.06;;;31.11;22.02
72903;BME280;61047;43.282;28.014;2024-03-17T11:10:50;99299.38;;;31.48;22.42
72903;BME280;61047;43.282;28.014;2024-03-17T11:13:25;99298.25;;;30.23;23.01
72903;BME280;61047;43.282;28.014;2024-03-17T11:15:53;99287.03;;;29.83;23.75
72903;BME280;61047;43.282;28.014;2024-03-17T11:23:29;99284.22;;;31.01;22.74
72903;BME280;61047;43.282;28.014;2024-03-17T11:25:58;99277.91;;;31.11;22.59
72903;BME280;61047;43.282;28.014;2024-03-17T11:34:04;99265.47;;;30.23;22.93
72903;BME280;61047;43.282;28.014;2024-03-17T11:36:36;99266.56;;;30.12;23.38
72903;BME280;61047;43.282;28.014;2024-03-17T11:39:03;99258.91;;;30.03;23.70
72903;BME280;61047;43.282;28.014;2024-03-17T11:46:57;99258.06;;;30.03;23.30
72903;BME280;61047;43.282;28.014;2024-03-17T11:49:27;99248.25;;;30.53;22.35
72903;BME280;61047;43.282;28.014;2024-03-17T11:51:54;99247.16;;;30.34;22.33
72903;BME280;61047;43.282;28.014;2024-03-17T11:54:21;99238.81;;;31.05;21.42
72903;BME280;61047;43.282;28.014;2024-03-17T11:56:50;99246.00;;;30.65;21.88
72903;BME280;61047;43.282;28.014;2024-03-17T11:59:17;99237.84;;;31.30;21.45
72903;BME280;61047;43.282;28.014;2024-03-17T12:01:47;99237.78;;;30.86;21.56
72903;BME280;61047;43.282;28.014;2024-03-17T12:04:13;99232.94;;;30.31;22.14
72903;BME280;61047;43.282;28.014;2024-03-17T12:06:39;99231.28;;;30.61;22.10
72903;BME280;61047;43.282;28.014;2024-03-17T12:11:46;99237.25;;;30.63;21.75
72903;BME280;61047;43.282;28.014;2024-03-17T12:14:15;99235.69;;;30.37;22.00
72903;BME280;61047;43.282;28.014;2024-03-17T12:16:51;99231.53;;;30.55;21.76
72903;BME280;61047;43.282;28.014;2024-03-17T12:19:20;99230.75;;;30.49;21.64
72903;BME280;61047;43.282;28.014;2024-03-17T12:21:53;99231.88;;;29.86;22.70
72903;BME280;61047;43.282;28.014;2024-03-17T12:24:20;99227.69;;;29.43;22.95
72903;BME280;61047;43.282;28.014;2024-03-17T12:26:47;99231.59;;;29.73;22.64
72903;BME280;61047;43.282;28.014;2024-03-17T12:29:32;99225.22;;;29.41;23.02
72903;BME280;61047;43.282;28.014;2024-03-17T12:31:59;99229.03;;;29.40;23.23
72903;BME280;61047;43.282;28.014;2024-03-17T12:34:25;99226.66;;;29.90;22.86
72903;BME280;61047;43.282;28.014;2024-03-17T12:36:52;99221.75;;;29.66;23.21
72903;BME280;61047;43.282;28.014;2024-03-17T12:41:44;99222.25;;;29.53;23.86
72903;BME280;61047;43.282;28.014;2024-03-17T12:44:23;99217.94;;;29.78;23.30
72903;BME280;61047;43.282;28.014;2024-03-17T12:46:54;99213.00;;;29.90;23.02
72903;BME280;61047;43.282;28.014;2024-03-17T12:49:20;99217.84;;;29.32;24.03
72903;BME280;61047;43.282;28.014;2024-03-17T12:51:45;99211.31;;;29.53;24.11
72903;BME280;61047;43.282;28.014;2024-03-17T12:54:11;99217.22;;;29.14;24.25
72903;BME280;61047;43.282;28.014;2024-03-17T12:56:37;99209.69;;;29.42;23.55
72903;BME280;61047;43.282;28.014;2024-03-17T12:59:21;99210.06;;;28.98;24.29
72903;BME280;61047;43.282;28.014;2024-03-17T13:02:17;99208.47;;;28.49;24.72
72903;BME280;61047;43.282;28.014;2024-03-17T13:04:42;99199.69;;;28.42;25.21
72903;BME280;61047;43.282;28.014;2024-03-17T13:07:11;99206.16;;;28.73;24.80
72903;BME280;61047;43.282;28.014;2024-03-17T13:09:36;99198.75;;;28.64;24.82
72903;BME280;61047;43.282;28.014;2024-03-17T13:12:10;99197.91;;;28.58;24.95
72903;BME280;61047;43.282;28.014;2024-03-17T13:14:37;99205.19;;;28.10;25.39
72903;BME280;61047;43.282;28.014;2024-03-17T13:17:03;99196.56;;;28.23;25.18
72903;BME280;61047;43.282;28.014;2024-03-17T13:19:29;99192.16;;;28.17;25.08
72903;BME280;61047;43.282;28.014;2024-03-17T13:21:54;99195.56;;;28.34;24.65